createdAt,value
2022-12-23T00:02:31.252Z,85.13
2022-12-23T00:05:03.856Z,85.22
2022-12-23T00:07:36.489Z,84.96
2022-12-23T00:10:11.050Z,84.99
2022-12-23T00:13:01.025Z,84.91
2022-12-23T00:15:33.623Z,84.71
2022-12-23T00:18:06.273Z,84.69
2022-12-23T00:20:41.699Z,84.56
2022-12-23T00:23:14.214Z,84.32
2022-12-23T00:25:46.954Z,84.12
2022-12-23T00:28:21.259Z,84.03
2022-12-23T00:30:55.407Z,84.03
2022-12-23T00:33:29.220Z,84.07
2022-12-23T00:36:04.226Z,83.94
2022-12-23T00:38:54.281Z,84.22
2022-12-23T00:41:44.317Z,84.22
2022-12-23T00:44:16.831Z,84.12
2022-12-23T00:46:49.397Z,83.95
2022-12-23T00:49:40.205Z,83.90
2022-12-23T00:52:16.769Z,83.80
2022-12-23T00:54:49.212Z,83.63
2022-12-23T00:57:21.718Z,83.51
2022-12-23T00:59:54.293Z,83.44
2022-12-23T01:02:44.092Z,83.49
2022-12-23T01:05:36.268Z,83.28
2022-12-23T01:08:11.357Z,83.12
2022-12-23T01:10:43.839Z,83.19
2022-12-23T01:13:16.346Z,83.07
2022-12-23T01:15:49.197Z,82.97
2022-12-23T01:18:23.588Z,83.23
2022-12-23T01:20:56.201Z,83.20
2022-12-23T01:23:28.803Z,83.24
2022-12-23T01:26:03.690Z,83.35
2022-12-23T01:28:37.226Z,83.45
2022-12-23T01:31:12.854Z,83.34
2022-12-23T01:33:46.103Z,83.22
2022-12-23T01:36:19.458Z,83.21
2022-12-23T01:38:52.281Z,83.00
2022-12-23T01:41:44.979Z,82.95
2022-12-23T01:44:51.664Z,82.92
2022-12-23T01:47:28.428Z,82.94
2022-12-23T01:50:07.648Z,82.84
2022-12-23T01:52:46.038Z,83.18
2022-12-23T01:55:20.274Z,83.02
2022-12-23T01:57:53.757Z,83.34
2022-12-23T02:00:44.066Z,83.42
2022-12-23T02:03:33.956Z,83.22
2022-12-23T02:06:21.337Z,83.35
2022-12-23T02:09:11.030Z,83.37
2022-12-23T02:12:15.796Z,83.15
2022-12-23T02:15:37.147Z,82.95
2022-12-23T02:18:32.471Z,82.79
2022-12-23T02:21:29.203Z,82.96
2022-12-23T02:24:27.785Z,83.12
2022-12-23T02:27:20.297Z,83.27
2022-12-23T02:30:28.170Z,83.36
2022-12-23T02:33:31.559Z,83.47
2022-12-23T02:36:17.641Z,83.54
2022-12-23T02:38:57.966Z,83.43
2022-12-23T02:41:38.208Z,83.34
2022-12-23T02:44:20.214Z,83.17
2022-12-23T02:46:56.983Z,83.24
2022-12-23T02:49:34.866Z,82.97
2022-12-23T02:52:15.688Z,82.86
2022-12-23T02:54:53.113Z,83.02
2022-12-23T02:57:30.794Z,83.07
2022-12-23T03:00:05.189Z,83.28
2022-12-23T03:02:41.169Z,83.30
2022-12-23T03:05:29.324Z,83.29
2022-12-23T03:08:05.355Z,83.31
2022-12-23T03:10:46.363Z,83.30
2022-12-23T03:13:30.415Z,83.07
2022-12-23T03:16:16.155Z,83.12
2022-12-23T03:19:02.579Z,82.95
2022-12-23T03:21:42.680Z,83.29
2022-12-23T03:24:23.388Z,83.24
2022-12-23T03:27:04.692Z,83.40
2022-12-23T03:29:44.111Z,83.58
2022-12-23T03:32:18.377Z,83.61
2022-12-23T03:34:53.622Z,83.52
2022-12-23T03:37:29.182Z,83.49
2022-12-23T03:40:06.124Z,83.56
2022-12-23T03:42:41.296Z,83.38
2022-12-23T03:48:17.371Z,83.30
2022-12-23T03:50:54.126Z,83.38
2022-12-23T03:53:31.047Z,83.37
2022-12-23T03:56:07.969Z,83.51
2022-12-23T03:58:44.418Z,83.57
2022-12-23T04:01:27.273Z,83.66
2022-12-23T04:04:08.118Z,83.49
2022-12-23T04:06:46.775Z,83.41
2022-12-23T04:09:22.357Z,83.30
2022-12-23T04:11:56.372Z,83.28
2022-12-23T04:14:28.856Z,83.15
2022-12-23T04:17:01.676Z,83.11
2022-12-23T04:19:34.196Z,83.01
2022-12-23T04:22:06.743Z,83.52
2022-12-23T04:24:39.357Z,83.27
2022-12-23T04:27:14.846Z,83.40
2022-12-23T04:29:47.971Z,83.59
2022-12-23T04:32:20.449Z,83.67
2022-12-23T04:34:53.023Z,83.58
2022-12-23T04:37:28.236Z,83.60
2022-12-23T04:40:00.718Z,83.71
2022-12-23T04:42:33.371Z,83.89
2022-12-23T04:45:09.847Z,84.12
2022-12-23T04:47:42.376Z,84.13
2022-12-23T04:50:17.199Z,84.31
2022-12-23T04:52:49.705Z,84.27
2022-12-23T04:55:22.225Z,84.27
2022-12-23T04:57:54.774Z,84.35
2022-12-23T05:00:27.448Z,84.42
2022-12-23T05:03:00.226Z,84.47
2022-12-23T05:05:32.976Z,84.91
2022-12-23T05:08:07.777Z,84.99
2022-12-23T05:10:40.325Z,85.22
2022-12-23T05:13:12.909Z,85.42
2022-12-23T05:15:46.717Z,85.72
2022-12-23T05:18:19.502Z,85.85
2022-12-23T05:20:52.677Z,85.99
2022-12-23T05:23:25.197Z,86.14
2022-12-23T05:25:58.023Z,86.31
2022-12-23T05:28:30.633Z,86.39
2022-12-23T05:31:06.417Z,86.51
2022-12-23T05:33:39.145Z,86.74
2022-12-23T05:36:12.719Z,86.87
2022-12-23T05:38:45.216Z,87.17
2022-12-23T05:41:18.552Z,87.29
2022-12-23T05:43:51.227Z,87.29
2022-12-23T05:46:26.786Z,87.42
2022-12-23T05:48:59.697Z,87.47
2022-12-23T05:51:32.197Z,87.44
2022-12-23T05:54:04.727Z,87.46
2022-12-23T05:56:37.798Z,87.49
2022-12-23T05:59:10.458Z,87.45
2022-12-23T06:01:43.017Z,87.33
2022-12-23T06:04:15.634Z,87.23
2022-12-23T06:06:48.144Z,87.30
2022-12-23T06:09:20.583Z,87.05
2022-12-23T06:11:53.261Z,87.03
2022-12-23T06:14:29.064Z,87.11
2022-12-23T06:17:02.033Z,87.14
2022-12-23T06:19:34.481Z,87.41
2022-12-23T06:22:07.986Z,87.52
2022-12-23T06:24:41.081Z,87.65
2022-12-23T06:27:13.798Z,87.85
2022-12-23T06:29:46.503Z,87.87
2022-12-23T06:32:19.049Z,87.98
2022-12-23T06:34:53.421Z,88.01
2022-12-23T06:37:25.934Z,88.12
2022-12-23T06:39:58.535Z,88.14
2022-12-23T06:42:31.237Z,88.08
2022-12-23T06:45:03.725Z,88.01
2022-12-23T06:47:36.233Z,87.85
2022-12-23T06:50:10.332Z,87.69
2022-12-23T06:52:42.802Z,87.51
2022-12-23T06:55:15.496Z,87.51
2022-12-23T06:57:47.923Z,87.44
2022-12-23T07:00:22.737Z,87.26
2022-12-23T07:02:56.149Z,87.11
2022-12-23T07:05:36.457Z,86.89
2022-12-23T07:08:09.855Z,86.74
2022-12-23T07:10:42.443Z,86.22
2022-12-23T07:13:15.227Z,86.19
2022-12-23T07:15:47.769Z,86.09
2022-12-23T07:18:20.246Z,85.94
2022-12-23T07:20:53.238Z,85.99
2022-12-23T07:23:25.687Z,85.93
2022-12-23T07:25:58.556Z,85.85
2022-12-23T07:28:31.081Z,85.60
2022-12-23T07:31:06.341Z,85.48
2022-12-23T07:33:38.861Z,85.31
2022-12-23T07:36:12.095Z,85.14
2022-12-23T07:38:44.917Z,84.79
2022-12-23T07:41:17.402Z,84.37
2022-12-23T07:43:50.054Z,83.96
2022-12-23T07:46:22.639Z,83.79
2022-12-23T07:48:55.404Z,83.62
2022-12-23T07:51:28.306Z,83.50
2022-12-23T07:54:00.914Z,83.46
2022-12-23T07:56:33.409Z,83.33
2022-12-23T07:59:05.881Z,83.03
2022-12-23T08:01:38.717Z,82.61
2022-12-23T08:04:11.457Z,82.20
2022-12-23T08:06:43.933Z,82.14
2022-12-23T08:09:19.335Z,82.03
2022-12-23T08:11:51.927Z,81.45
2022-12-23T08:14:24.539Z,81.01
2022-12-23T08:16:59.212Z,80.99
2022-12-23T08:19:31.736Z,80.84
2022-12-23T08:22:04.263Z,80.80
2022-12-23T08:24:36.733Z,80.37
2022-12-23T08:27:09.205Z,80.61
2022-12-23T08:29:42.005Z,80.46
2022-12-23T08:32:14.666Z,80.18
2022-12-23T08:34:47.139Z,80.05
2022-12-23T08:37:19.820Z,79.76
2022-12-23T08:39:52.332Z,79.61
2022-12-23T08:42:26.102Z,79.50
2022-12-23T08:44:58.856Z,78.96
2022-12-23T08:47:31.375Z,78.58
2022-12-23T08:50:04.007Z,78.50
2022-12-23T08:52:36.489Z,78.43
2022-12-23T08:55:10.257Z,78.24
2022-12-23T08:57:42.712Z,78.02
2022-12-23T09:00:16.389Z,77.88
2022-12-23T09:02:49.003Z,77.75
2022-12-23T09:05:21.602Z,77.44
2022-12-23T09:07:54.332Z,76.85
2022-12-23T09:10:28.092Z,76.49
2022-12-23T09:13:00.541Z,76.27
2022-12-23T09:15:33.112Z,75.71
2022-12-23T09:18:05.617Z,75.90
2022-12-23T09:20:38.385Z,75.29
2022-12-23T09:23:10.923Z,74.83
2022-12-23T09:25:43.446Z,75.28
2022-12-23T09:28:15.924Z,74.83
2022-12-23T09:30:48.481Z,74.59
2022-12-23T09:33:21.045Z,74.57
2022-12-23T09:35:53.575Z,74.25
2022-12-23T09:38:26.044Z,74.05
2022-12-23T09:41:05.312Z,74.06
2022-12-23T09:43:49.941Z,73.91
2022-12-23T09:46:26.833Z,73.92
2022-12-23T09:49:05.463Z,74.11
2022-12-23T09:51:38.461Z,73.88
2022-12-23T09:54:17.799Z,74.10
2022-12-23T09:56:56.217Z,74.41
2022-12-23T09:59:47.708Z,74.09
2022-12-23T10:02:29.904Z,74.11
2022-12-23T10:05:15.822Z,74.07
2022-12-23T10:07:52.913Z,74.22
2022-12-23T10:10:35.983Z,73.46
2022-12-23T10:13:14.162Z,73.31
2022-12-23T10:15:47.456Z,73.15
2022-12-23T10:18:26.275Z,73.36
2022-12-23T10:21:02.929Z,72.89
2022-12-23T10:23:39.279Z,72.82
2022-12-23T10:26:19.761Z,72.48
2022-12-23T10:28:56.295Z,72.38
2022-12-23T10:31:40.924Z,72.32
2022-12-23T10:34:23.420Z,72.53
2022-12-23T10:37:08.746Z,72.48
2022-12-23T10:39:46.177Z,72.19
2022-12-23T10:42:29.201Z,72.13
2022-12-23T10:45:32.697Z,71.89
2022-12-23T10:48:23.070Z,71.63
2022-12-23T10:51:02.736Z,71.39
2022-12-23T10:53:47.100Z,71.31
2022-12-23T10:56:21.959Z,71.40
2022-12-23T10:58:58.111Z,71.15
2022-12-23T11:01:31.868Z,71.19
2022-12-23T11:04:10.296Z,71.40
2022-12-23T11:06:45.421Z,71.56
2022-12-23T11:09:21.593Z,71.93
2022-12-23T11:11:59.763Z,72.31
2022-12-23T11:14:41.658Z,72.65
2022-12-23T11:17:24.571Z,73.03
2022-12-23T11:20:13.581Z,73.45
2022-12-23T11:22:52.899Z,73.79
2022-12-23T11:25:38.149Z,74.18
2022-12-23T11:28:17.505Z,74.61
2022-12-23T11:30:58.365Z,75.19
2022-12-23T11:33:33.367Z,75.47
2022-12-23T11:36:10.026Z,76.17
2022-12-23T11:38:52.598Z,76.25
2022-12-23T11:41:27.986Z,76.43
2022-12-23T11:44:04.964Z,76.96
2022-12-23T11:46:38.030Z,77.27
2022-12-23T11:49:21.763Z,77.50
2022-12-23T11:52:03.643Z,77.78
2022-12-23T11:54:37.171Z,78.06
2022-12-23T11:57:17.760Z,78.31
2022-12-23T11:59:56.669Z,78.57
2022-12-23T12:02:37.654Z,78.64
2022-12-23T12:05:23.034Z,78.64
2022-12-23T12:07:59.828Z,78.97
2022-12-23T12:10:35.153Z,79.41
2022-12-23T12:13:17.468Z,79.85
2022-12-23T12:15:57.388Z,80.11
2022-12-23T12:18:30.744Z,80.54
2022-12-23T12:21:06.960Z,80.72
2022-12-23T12:23:45.454Z,80.77
2022-12-23T12:26:24.397Z,80.89
2022-12-23T12:29:02.535Z,80.84
2022-12-23T12:31:40.478Z,81.33
2022-12-23T12:34:29.534Z,81.28
2022-12-23T12:37:08.952Z,81.52
2022-12-23T12:39:47.279Z,81.66
2022-12-23T12:42:27.185Z,81.91
2022-12-23T12:45:06.798Z,81.88
2022-12-23T12:47:54.115Z,82.35
2022-12-23T12:50:31.284Z,82.27
2022-12-23T12:53:20.211Z,82.33
2022-12-23T12:55:58.410Z,82.85
2022-12-23T12:58:29.493Z,83.06
2022-12-23T13:01:14.792Z,83.15
2022-12-23T13:04:07.287Z,83.44
2022-12-23T13:06:49.539Z,83.75
2022-12-23T13:09:32.486Z,84.13
2022-12-23T13:12:16.240Z,84.02
2022-12-23T13:15:00.799Z,84.08
2022-12-23T13:17:39.262Z,84.20
2022-12-23T13:20:26.675Z,84.25
2022-12-23T13:23:34.424Z,84.24
2022-12-23T13:26:06.708Z,84.32
2022-12-23T13:28:51.271Z,84.42
2022-12-23T13:31:41.184Z,84.59
2022-12-23T13:34:30.014Z,84.54
2022-12-23T13:37:13.430Z,84.57
2022-12-23T13:39:57.302Z,84.40
2022-12-23T13:42:35.742Z,84.36
2022-12-23T13:45:15.566Z,84.21
2022-12-23T13:48:04.332Z,84.33
2022-12-23T13:50:43.634Z,84.38
2022-12-23T13:53:21.857Z,84.63
2022-12-23T13:56:12.351Z,85.00
2022-12-23T13:58:49.262Z,85.27
2022-12-23T14:01:44.760Z,85.75
2022-12-23T14:04:58.342Z,86.05
2022-12-23T14:07:33.431Z,86.47
2022-12-23T14:10:21.778Z,86.65
2022-12-23T14:13:00.441Z,86.72
2022-12-23T14:15:49.687Z,86.84
2022-12-23T14:18:46.521Z,86.77
2022-12-23T14:21:29.173Z,86.73
2022-12-23T14:24:26.405Z,86.83
2022-12-23T14:27:23.112Z,86.95
2022-12-23T14:30:09.030Z,87.05
2022-12-23T14:32:47.990Z,87.16
2022-12-23T14:35:25.281Z,87.33
2022-12-23T14:38:31.470Z,87.53
2022-12-23T14:41:24.225Z,87.66
2022-12-23T14:44:02.913Z,87.69
2022-12-23T14:46:58.600Z,87.94
2022-12-23T14:49:44.204Z,87.71
2022-12-23T14:52:48.107Z,87.82
2022-12-23T14:55:51.565Z,88.02
2022-12-23T14:58:33.722Z,88.02
2022-12-23T15:01:13.758Z,87.93
2022-12-23T15:03:57.556Z,88.48
2022-12-23T15:06:37.414Z,88.53
2022-12-23T15:09:20.015Z,88.56
2022-12-23T15:11:53.929Z,88.53
2022-12-23T15:14:35.346Z,88.47
2022-12-23T15:17:25.634Z,88.34
2022-12-23T15:20:09.391Z,88.43
2022-12-23T15:22:43.354Z,88.21
2022-12-23T15:25:27.703Z,88.35
2022-12-23T15:28:02.688Z,88.16
2022-12-23T15:30:47.343Z,88.11
2022-12-23T15:36:23.169Z,88.02
2022-12-23T15:38:55.946Z,88.10
2022-12-23T15:41:29.130Z,88.09
2022-12-23T15:44:02.489Z,88.09
2022-12-23T15:46:40.202Z,88.12
2022-12-23T15:49:14.613Z,88.14
2022-12-23T15:54:47.089Z,88.20
2022-12-23T15:57:23.989Z,88.54
2022-12-23T15:59:57.167Z,88.41
2022-12-23T16:05:32.014Z,88.61
2022-12-23T16:08:30.310Z,88.54
2022-12-23T16:11:13.981Z,88.58
2022-12-23T16:13:58.684Z,88.73
2022-12-23T16:16:38.793Z,88.53
2022-12-23T16:19:40.818Z,88.51
2022-12-23T16:22:29.595Z,88.61
2022-12-23T16:25:10.582Z,88.63
2022-12-23T16:27:45.328Z,88.49
2022-12-23T16:30:21.680Z,88.43
2022-12-23T16:32:56.682Z,88.48
2022-12-23T16:35:41.145Z,88.39
2022-12-23T16:38:17.389Z,88.26
2022-12-23T16:40:52.623Z,88.26
2022-12-23T16:43:26.110Z,88.20
2022-12-23T16:46:00.130Z,88.23
2022-12-23T16:48:36.631Z,88.09
2022-12-23T16:51:14.493Z,88.12
2022-12-23T16:53:47.296Z,88.26
2022-12-23T16:56:22.156Z,88.22
2022-12-23T16:58:54.859Z,88.37
2022-12-23T17:01:30.981Z,88.43
2022-12-23T17:04:03.911Z,88.53
2022-12-23T17:06:37.408Z,88.56
2022-12-23T17:09:11.765Z,88.49
2022-12-23T17:11:47.547Z,88.47
2022-12-23T17:14:22.081Z,88.29
2022-12-23T17:16:55.011Z,88.34
2022-12-23T17:19:29.346Z,88.29
2022-12-23T17:22:04.718Z,88.23
2022-12-23T17:24:37.585Z,88.18
2022-12-23T17:27:15.831Z,87.90
2022-12-23T17:29:48.370Z,87.93
2022-12-23T17:32:22.760Z,87.81
2022-12-23T17:34:56.979Z,87.58
2022-12-23T17:37:33.845Z,87.56
2022-12-23T17:40:07.537Z,87.60
2022-12-23T17:42:40.558Z,87.51
2022-12-23T17:45:25.335Z,87.26
2022-12-23T17:47:58.124Z,87.24
2022-12-23T17:50:31.563Z,87.42
2022-12-23T17:53:04.385Z,87.24
2022-12-23T17:55:37.224Z,87.16
2022-12-23T17:58:10.217Z,87.08
2022-12-23T18:00:43.148Z,86.81
2022-12-23T18:03:24.674Z,87.02
2022-12-23T18:06:02.046Z,86.92
2022-12-23T18:08:35.139Z,86.94
2022-12-23T18:11:08.682Z,86.87
2022-12-23T18:13:41.531Z,86.99
2022-12-23T18:16:15.333Z,86.88
2022-12-23T18:18:47.967Z,87.14
2022-12-23T18:21:24.903Z,87.04
2022-12-23T18:24:00.878Z,87.14
2022-12-23T18:26:33.520Z,87.24
2022-12-23T18:29:06.317Z,87.15
2022-12-23T18:31:50.026Z,87.44
2022-12-23T18:34:23.936Z,87.24
2022-12-23T18:36:56.446Z,87.33
2022-12-23T18:39:29.323Z,87.15
2022-12-23T18:42:02.449Z,87.15
2022-12-23T18:44:35.240Z,86.92
2022-12-23T18:47:08.141Z,86.83
2022-12-23T18:49:41.179Z,86.90
2022-12-23T18:52:15.077Z,86.99
2022-12-23T18:54:47.900Z,86.74
2022-12-23T18:57:23.356Z,86.98
2022-12-23T18:59:56.103Z,87.23
2022-12-23T19:02:29.380Z,87.05
2022-12-23T19:05:02.141Z,87.10
2022-12-23T19:07:34.751Z,86.98
2022-12-23T19:10:10.726Z,86.91
2022-12-23T19:12:43.411Z,86.89
2022-12-23T19:15:17.556Z,86.87
2022-12-23T19:17:51.125Z,86.76
2022-12-23T19:20:24.129Z,86.96
2022-12-23T19:22:57.010Z,86.76
2022-12-23T19:25:30.289Z,86.67
2022-12-23T19:28:03.261Z,86.67
2022-12-23T19:30:37.367Z,86.60
2022-12-23T19:33:10.325Z,86.57
2022-12-23T19:35:45.418Z,86.46
2022-12-23T19:38:18.288Z,86.61
2022-12-23T19:40:59.327Z,86.56
2022-12-23T19:43:32.419Z,86.50
2022-12-23T19:46:09.071Z,86.44
2022-12-23T19:48:41.867Z,86.37
2022-12-23T19:51:16.957Z,86.58
2022-12-23T19:53:53.080Z,86.65
2022-12-23T19:56:26.371Z,86.77
2022-12-23T19:58:58.988Z,86.83
2022-12-23T20:01:31.902Z,87.05
2022-12-23T20:04:04.706Z,87.22
2022-12-23T20:06:38.564Z,87.45
2022-12-23T20:09:13.412Z,87.75
2022-12-23T20:11:47.494Z,87.76
2022-12-23T20:14:21.952Z,88.14
2022-12-23T20:16:54.955Z,88.16
2022-12-23T20:19:28.069Z,88.37
2022-12-23T20:22:00.877Z,88.42
2022-12-23T20:24:37.200Z,88.36
2022-12-23T20:27:12.576Z,88.55
2022-12-23T20:29:46.060Z,88.40
2022-12-23T20:32:18.756Z,88.13
2022-12-23T20:34:51.498Z,88.09
2022-12-23T20:37:24.347Z,87.93
2022-12-23T20:39:57.135Z,87.70
2022-12-23T20:42:29.683Z,87.80
2022-12-23T20:45:02.335Z,87.69
2022-12-23T20:47:35.322Z,87.52
2022-12-23T20:50:11.014Z,87.71
2022-12-23T20:52:43.805Z,87.71
2022-12-23T20:55:16.685Z,87.42
2022-12-23T20:57:49.500Z,87.34
2022-12-23T21:00:22.922Z,87.31
2022-12-23T21:02:56.880Z,87.48
2022-12-23T21:05:29.951Z,87.38
2022-12-23T21:08:02.997Z,87.37
2022-12-23T21:10:36.426Z,87.30
2022-12-23T21:13:09.143Z,87.20
2022-12-23T21:15:41.916Z,87.10
2022-12-23T21:18:16.793Z,87.21
2022-12-23T21:20:49.340Z,87.24
2022-12-23T21:23:22.145Z,87.33
2022-12-23T21:26:04.854Z,87.48
2022-12-23T21:28:37.787Z,87.50
2022-12-23T21:31:11.884Z,87.64
2022-12-23T21:33:47.086Z,87.58
2022-12-23T21:36:21.799Z,87.61
2022-12-23T21:38:54.902Z,87.73
2022-12-23T21:41:30.038Z,87.52
2022-12-23T21:44:04.505Z,87.47
2022-12-23T21:46:37.174Z,87.41
2022-12-23T21:49:10.919Z,87.36
2022-12-23T21:51:43.988Z,87.43
2022-12-23T21:54:20.859Z,87.30
2022-12-23T21:56:53.497Z,87.28
2022-12-23T21:59:32.827Z,87.18
2022-12-23T22:02:08.162Z,87.07
2022-12-23T22:04:40.936Z,86.89
2022-12-23T22:07:13.586Z,86.96
2022-12-23T22:09:46.241Z,87.04
2022-12-23T22:12:18.990Z,86.99
2022-12-23T22:14:52.812Z,87.01
2022-12-23T22:17:25.761Z,86.88
2022-12-23T22:19:58.377Z,86.99
2022-12-23T22:22:30.874Z,86.86
2022-12-23T22:25:03.383Z,86.69
2022-12-23T22:27:35.871Z,86.64
2022-12-23T22:30:10.328Z,86.48
2022-12-23T22:32:43.051Z,86.60
2022-12-23T22:35:15.863Z,86.57
2022-12-23T22:37:48.339Z,86.37
2022-12-23T22:40:21.227Z,86.39
2022-12-23T22:42:54.314Z,86.43
2022-12-23T22:45:27.690Z,86.45
2022-12-23T22:48:00.442Z,86.43
2022-12-23T22:51:57.271Z,86.35
2022-12-23T22:54:30.151Z,86.35
2022-12-23T22:57:03.117Z,86.54
2022-12-23T22:59:36.048Z,86.15
2022-12-23T23:02:09.157Z,86.35
2022-12-23T23:04:42.758Z,86.21
2022-12-23T23:07:15.574Z,86.17
2022-12-23T23:09:48.816Z,86.35
2022-12-23T23:12:21.558Z,86.25
2022-12-23T23:14:54.429Z,86.39
2022-12-23T23:17:28.662Z,86.46
2022-12-23T23:20:01.507Z,86.52
2022-12-23T23:22:34.810Z,86.64
2022-12-23T23:25:08.788Z,86.49
2022-12-23T23:27:41.878Z,86.41
2022-12-23T23:30:15.610Z,86.23
2022-12-23T23:32:48.616Z,86.33
2022-12-23T23:35:22.672Z,86.22
2022-12-23T23:37:57.403Z,86.28
2022-12-23T23:40:30.509Z,86.43
2022-12-23T23:48:06.672Z,86.16
2022-12-23T23:50:39.607Z,86.19
2022-12-23T23:53:13.059Z,85.97
2022-12-23T23:55:46.124Z,85.99
2022-12-23T23:58:19.225Z,85.89
